createdAt,value
2018-08-11T00:01:15.908Z,6.97
2018-08-11T00:05:16.701Z,6.13
2018-08-11T00:11:17.522Z,6.25
2018-08-11T00:15:18.371Z,5.85
2018-08-11T00:21:19.112Z,6.11
2018-08-11T00:27:19.885Z,6.03
2018-08-11T00:31:20.648Z,6.03
2018-08-11T00:37:21.390Z,6.05
2018-08-11T00:41:22.154Z,6.17
2018-08-11T00:43:22.842Z,6.26
2018-08-11T00:47:23.833Z,5.81
2018-08-11T00:53:24.573Z,5.94
2018-08-11T00:57:25.906Z,5.48
2018-08-11T01:03:26.707Z,5.63
2018-08-11T01:07:27.551Z,5.68
2018-08-11T01:09:28.247Z,5.37
2018-08-11T01:13:29.029Z,5.14
2018-08-11T01:19:29.681Z,5.4
2018-08-11T01:23:30.347Z,5.38
2018-08-11T01:29:31.136Z,5.67
2018-08-11T01:33:31.773Z,5.84
2018-08-11T01:35:32.514Z,6.09
2018-08-11T01:39:33.247Z,5.57
2018-08-11T01:45:34.072Z,5.93
2018-08-11T01:49:34.892Z,6.19
2018-08-11T01:55:35.768Z,5.8
2018-08-11T01:59:36.483Z,5.22
2018-08-11T02:01:37.189Z,6.14
2018-08-11T02:05:37.978Z,5.59
2018-08-11T02:11:38.685Z,6.84
2018-08-11T02:15:39.395Z,6.34
2018-08-11T02:21:40.190Z,5.9
2018-08-11T02:25:40.981Z,6.06
2018-08-11T02:27:41.731Z,6.42
2018-08-11T02:31:42.480Z,6.83
2018-08-11T02:37:43.231Z,6.73
2018-08-11T02:41:44.073Z,7.15
2018-08-11T02:47:44.926Z,6.85
2018-08-11T02:51:45.629Z,6.2
2018-08-11T02:53:46.311Z,6.19
2018-08-11T02:57:47.010Z,6.45
2018-08-11T03:03:47.824Z,6.63
2018-08-11T03:07:48.632Z,6.8
2018-08-11T03:13:49.290Z,6.25
2018-08-11T03:19:50.054Z,6.8
2018-08-11T03:23:50.827Z,6.76
2018-08-11T03:29:51.643Z,6.36
2018-08-11T03:33:52.358Z,6.35
2018-08-11T03:39:53.061Z,6.35
2018-08-11T03:45:53.881Z,6.67
2018-08-11T03:49:54.674Z,5.98
2018-08-11T03:56:00.121Z,6.57
2018-08-11T04:00:01.057Z,7.210346
2018-08-11T04:06:01.752Z,6.43
2018-08-11T04:12:02.535Z,7.29
2018-08-11T04:16:03.236Z,6.78
2018-08-11T04:22:03.951Z,5.89
2018-08-11T04:26:04.733Z,6.35
2018-08-11T04:32:05.548Z,5.9
2018-08-11T04:38:06.262Z,6.35
2018-08-11T04:42:07.125Z,6.38
2018-08-11T04:48:07.768Z,6.91
2018-08-11T04:52:08.488Z,6.93
2018-08-11T04:58:09.254Z,7.16
2018-08-11T05:04:10.051Z,7.52
2018-08-11T05:08:10.776Z,7.21
2018-08-11T05:14:11.582Z,7.31
2018-08-11T05:18:12.376Z,7.28
2018-08-11T05:24:13.128Z,7.19
2018-08-11T05:30:14.466Z,7.23
2018-08-11T05:34:15.228Z,7.03
2018-08-11T05:40:15.967Z,7.65
2018-08-11T05:44:16.857Z,7.49
2018-08-11T05:50:17.618Z,7.05
2018-08-11T05:56:18.367Z,7.73
2018-08-11T06:00:19.628Z,7.84
2018-08-11T06:06:20.421Z,7.27
2018-08-11T06:10:21.219Z,7.17
2018-08-11T06:12:21.846Z,7.63
2018-08-11T06:16:22.644Z,7.17
2018-08-11T06:22:23.377Z,7.17
2018-08-11T06:26:24.185Z,7.32
2018-08-11T06:32:24.985Z,7.81
2018-08-11T06:36:25.683Z,7.46
2018-08-11T06:38:26.403Z,8.14
2018-08-11T06:42:27.135Z,7.82
2018-08-11T06:48:27.899Z,7.53
2018-08-11T06:52:28.664Z,7.34
2018-08-11T06:58:29.504Z,7.94
2018-08-11T07:02:30.240Z,7.45
2018-08-11T07:04:30.995Z,7.54
2018-08-11T07:08:31.669Z,7.16
2018-08-11T07:14:32.464Z,7.01
2018-08-11T07:18:33.226Z,7.46
2018-08-11T07:24:34.082Z,6.52
2018-08-11T07:28:34.829Z,6.72
2018-08-11T07:30:38.514Z,6.9
2018-08-11T07:34:39.172Z,6.17
2018-08-11T07:40:39.956Z,6.41
2018-08-11T07:44:40.870Z,6.36
2018-08-11T07:50:41.633Z,5.37
2018-08-11T07:54:42.635Z,5.1
2018-08-11T07:56:43.433Z,6.5
2018-08-11T08:00:44.334Z,5.84
2018-08-11T08:06:45.173Z,5.98
2018-08-11T08:10:45.966Z,5.13
2018-08-11T08:16:46.616Z,5.59
2018-08-11T08:20:47.426Z,5.66
2018-08-11T08:22:48.057Z,5.88
2018-08-11T08:26:48.933Z,5.47
2018-08-11T08:32:49.560Z,5.82
2018-08-11T08:36:50.453Z,5.72
2018-08-11T08:42:51.213Z,5.48
2018-08-11T08:46:51.898Z,5.37
2018-08-11T08:48:52.728Z,5.06
2018-08-11T08:52:53.461Z,5.02
2018-08-11T08:58:54.275Z,5.53
2018-08-11T09:02:55.028Z,4.75
2018-08-11T09:08:56.008Z,5.2
2018-08-11T09:14:56.693Z,4.8
2018-08-11T09:18:57.496Z,4.8
2018-08-11T09:24:58.219Z,5.17
2018-08-11T09:28:59.028Z,4.95
2018-08-11T09:35:00.083Z,4.95
2018-08-11T09:41:00.883Z,5.14
2018-08-11T09:45:01.595Z,5.06
2018-08-11T09:51:02.479Z,5.01
2018-08-11T09:55:03.160Z,5.39
2018-08-11T10:01:03.877Z,4.63
2018-08-11T10:07:04.661Z,5.16
2018-08-11T10:11:05.425Z,4.85
2018-08-11T10:17:06.668Z,4.52
2018-08-11T10:21:07.391Z,4.35
2018-08-11T10:27:08.524Z,4.09
2018-08-11T10:33:09.795Z,3.66
2018-08-11T10:37:10.543Z,3.62
2018-08-11T10:43:11.286Z,4.03
2018-08-11T10:47:12.138Z,3.75
2018-08-11T10:49:12.654Z,3.87
2018-08-11T10:53:13.503Z,4.7
2018-08-11T10:59:14.270Z,4.34
2018-08-11T11:03:15.081Z,4.18
2018-08-11T11:09:15.777Z,4.51
2018-08-11T11:13:16.594Z,4.27
2018-08-11T11:15:18.006Z,4.38
2018-08-11T11:19:18.822Z,4.33
2018-08-11T11:25:19.593Z,4.67
2018-08-11T11:29:20.341Z,4.41
2018-08-11T11:35:21.062Z,4.27
2018-08-11T11:39:21.714Z,3.89
2018-08-11T11:41:22.424Z,4.16
2018-08-11T11:45:23.499Z,4.09
2018-08-11T11:51:24.312Z,4.22
2018-08-11T12:01:30.629Z,3.7
2018-08-11T12:01:30.805Z,4.21
2018-08-11T12:05:31.571Z,4.28
2018-08-11T12:07:32.339Z,4.78
2018-08-11T12:11:33.073Z,4.09
2018-08-11T12:17:33.889Z,4.83
2018-08-11T12:21:34.679Z,4.22
2018-08-11T12:27:35.607Z,4.55
2018-08-11T12:31:36.322Z,4.03
2018-08-11T12:33:37.062Z,4.51
2018-08-11T12:37:37.869Z,3.86
2018-08-11T12:43:39.090Z,3.77
2018-08-11T12:47:40.010Z,3.82
2018-08-11T12:53:40.836Z,4.44
2018-08-11T12:57:41.583Z,3.65
2018-08-11T12:59:42.347Z,4.16
2018-08-11T13:03:43.150Z,3.8
2018-08-11T13:09:44.171Z,3.47
2018-08-11T13:13:44.974Z,3.79
2018-08-11T13:19:45.736Z,3.34
2018-08-11T13:23:46.514Z,3.96
2018-08-11T13:25:47.257Z,4.16
2018-08-11T13:29:47.885Z,3.9
2018-08-11T13:35:48.621Z,4.04
2018-08-11T13:39:49.562Z,3.74
2018-08-11T13:45:50.420Z,3.57
2018-08-11T13:51:51.234Z,3.99
2018-08-11T13:55:52.120Z,3.84
2018-08-11T14:01:52.882Z,3.62
2018-08-11T14:05:53.818Z,3.81
2018-08-11T14:11:54.628Z,3.43
2018-08-11T14:17:55.469Z,3.65
2018-08-11T14:21:56.294Z,3.33
2018-08-11T14:27:57.255Z,3.28
2018-08-11T14:31:58.090Z,3.43
2018-08-11T14:37:58.929Z,3.13
2018-08-11T14:44:00.200Z,3.35
2018-08-11T14:48:00.927Z,3.13
2018-08-11T14:54:01.777Z,2.9
2018-08-11T14:58:02.560Z,2.44
2018-08-11T15:00:03.561Z,2.97
2018-08-11T15:04:04.172Z,2.76
2018-08-11T15:10:04.991Z,2.92
2018-08-11T15:14:05.690Z,2.67
2018-08-11T15:20:06.478Z,2.5
2018-08-11T15:24:07.181Z,2.61
2018-08-11T15:26:07.998Z,3.06
2018-08-11T15:30:09.044Z,2.52
2018-08-11T15:36:09.849Z,2.96
2018-08-11T15:40:10.593Z,2.88
2018-08-11T15:46:11.313Z,3.17
2018-08-11T15:50:12.089Z,3.08
2018-08-11T15:52:12.701Z,3.01
2018-08-11T15:56:13.476Z,3.31
2018-08-11T16:02:14.101Z,2.93
2018-08-11T16:06:14.903Z,3.01
2018-08-11T16:12:15.875Z,3.27
2018-08-11T16:16:16.600Z,2.94
2018-08-11T16:18:17.327Z,3.12
2018-08-11T16:22:18.182Z,3.2
2018-08-11T16:28:18.918Z,3.9
2018-08-11T16:32:19.691Z,2.91
2018-08-11T16:38:20.531Z,3.22
2018-08-11T16:44:21.495Z,5.1
2018-08-11T16:48:22.282Z,3.1
2018-08-11T16:54:23.088Z,2.93
2018-08-11T16:58:23.898Z,3.02
2018-08-11T17:04:24.671Z,2.84
2018-08-11T17:10:25.448Z,2.69
2018-08-11T17:14:26.444Z,3.07
2018-08-11T17:20:27.180Z,2.92
2018-08-11T17:24:27.938Z,2.63
2018-08-11T17:30:29.153Z,2.84
2018-08-11T17:36:29.979Z,2.78
2018-08-11T17:40:30.673Z,2.66
2018-08-11T17:46:31.603Z,2.82
2018-08-11T17:50:32.300Z,2.78
2018-08-11T17:56:33.078Z,2.79
2018-08-11T18:02:34.015Z,3.15
2018-08-11T18:06:34.876Z,2.96
2018-08-11T18:12:35.984Z,3.36
2018-08-11T18:16:36.704Z,3.02
2018-08-11T18:18:37.432Z,3.66
2018-08-11T18:22:38.248Z,3.04
2018-08-11T18:28:39.188Z,3.68
2018-08-11T18:32:39.903Z,3.47
2018-08-11T18:38:40.662Z,3.09
2018-08-11T18:42:41.438Z,3.03
2018-08-11T18:44:42.329Z,3.16
2018-08-11T18:48:43.038Z,3.93
2018-08-11T18:54:43.794Z,3.85
2018-08-11T18:58:44.577Z,3.62
2018-08-11T19:04:45.359Z,4.08
2018-08-11T19:08:46.172Z,3.52
2018-08-11T19:10:46.831Z,5.47
2018-08-11T19:14:47.655Z,4.82
2018-08-11T19:20:48.383Z,3.52
2018-08-11T19:24:49.130Z,3.39
2018-08-11T19:30:49.988Z,3.45
2018-08-11T19:34:50.706Z,3.57
2018-08-11T19:36:51.396Z,3.73
2018-08-11T19:40:52.147Z,3.8
2018-08-11T19:46:53.013Z,5.07
2018-08-11T19:50:53.773Z,4.94
2018-08-11T19:56:54.564Z,5.26
2018-08-11T20:02:55.332Z,5.92
2018-08-11T20:06:56.153Z,4.59
2018-08-11T20:12:56.861Z,3.92
2018-08-11T20:16:57.647Z,4.2
2018-08-11T20:22:58.478Z,4.12
2018-08-11T20:28:59.357Z,3.99
2018-08-11T20:33:00.072Z,4.55
2018-08-11T20:39:00.850Z,5.74
2018-08-11T20:43:01.578Z,5.86
2018-08-11T20:49:02.463Z,4.91
2018-08-11T20:55:03.295Z,5.47
2018-08-11T20:59:04.212Z,4.21
2018-08-11T21:05:04.955Z,4.8
2018-08-11T21:09:05.715Z,4.52
2018-08-11T21:15:06.537Z,4.03
2018-08-11T21:21:07.392Z,4.14
2018-08-11T21:25:08.204Z,3.92
2018-08-11T21:31:09.009Z,3.45
2018-08-11T21:35:09.797Z,3.06
2018-08-11T21:37:10.529Z,3.66
2018-08-11T21:41:11.416Z,3.3
2018-08-11T21:47:12.194Z,3.82
2018-08-11T21:51:13.000Z,3.57
2018-08-11T21:57:13.912Z,3.75
2018-08-11T22:01:14.664Z,3.53
2018-08-11T22:03:15.525Z,3.9
2018-08-11T22:07:16.432Z,3.68
2018-08-11T22:13:17.096Z,3.54
2018-08-11T22:17:17.893Z,3.87
2018-08-11T22:23:18.674Z,4.71
2018-08-11T22:27:19.426Z,4.96
2018-08-11T22:29:20.103Z,4.63
2018-08-11T22:33:20.944Z,4.63
2018-08-11T22:39:21.710Z,4.29
2018-08-11T22:43:23.149Z,4.05
2018-08-11T22:49:24.138Z,4.65
2018-08-11T22:53:24.932Z,3.88
2018-08-11T22:55:25.686Z,4.46
2018-08-11T22:59:26.465Z,3.97
2018-08-11T23:05:27.350Z,4.23
2018-08-11T23:09:28.076Z,4.29
2018-08-11T23:15:28.914Z,3.97
2018-08-11T23:19:29.890Z,4.29
2018-08-11T23:21:30.725Z,4.36
2018-08-11T23:25:31.494Z,4.32
2018-08-11T23:31:32.211Z,4.54
2018-08-11T23:35:32.988Z,4.14
2018-08-11T23:41:33.812Z,4.06
2018-08-11T23:45:34.617Z,4.45
2018-08-11T23:47:35.348Z,4.82
2018-08-11T23:51:36.086Z,5.09
2018-08-11T23:57:36.893Z,4.54
